createdAt,value
2018-02-17T00:00:44.564Z,857.22
2018-02-17T00:01:44.434Z,857.19
2018-02-17T00:02:44.301Z,857.18
2018-02-17T00:03:44.173Z,857.13
2018-02-17T00:04:44.045Z,857.15
2018-02-17T00:05:43.913Z,857.13
2018-02-17T00:06:43.784Z,857.15
2018-02-17T00:07:43.658Z,857.16
2018-02-17T00:08:43.529Z,857.17
2018-02-17T00:09:43.397Z,857.12
2018-02-17T00:10:43.271Z,857.09
2018-02-17T00:11:43.141Z,857.09
2018-02-17T00:12:43.011Z,857.10
2018-02-17T00:13:42.883Z,857.08
2018-02-17T00:14:42.753Z,857.10
2018-02-17T00:15:42.623Z,857.12
2018-02-17T00:16:42.494Z,857.07
2018-02-17T00:17:42.364Z,857.06
2018-02-17T00:18:42.241Z,857.08
2018-02-17T00:19:42.111Z,857.03
2018-02-17T00:20:41.978Z,857.07
2018-02-17T00:21:41.846Z,857.07
2018-02-17T00:22:41.718Z,857.06
2018-02-17T00:23:41.588Z,857.05
2018-02-17T00:24:41.457Z,857.09
2018-02-17T00:25:41.328Z,857.05
2018-02-17T00:26:41.200Z,857.09
2018-02-17T00:27:41.070Z,857.08
2018-02-17T00:28:40.941Z,857.09
2018-02-17T00:29:40.811Z,857.10
2018-02-17T00:30:40.681Z,857.09
2018-02-17T00:31:40.553Z,857.11
2018-02-17T00:32:40.425Z,857.11
2018-02-17T00:33:40.293Z,857.10
2018-02-17T00:34:40.166Z,857.10
2018-02-17T00:35:40.032Z,857.10
2018-02-17T00:36:39.906Z,857.13
2018-02-17T00:37:39.779Z,857.11
2018-02-17T00:38:39.646Z,857.08
2018-02-17T00:39:39.518Z,857.03
2018-02-17T00:40:39.391Z,856.98
2018-02-17T00:41:39.258Z,856.96
2018-02-17T00:42:39.136Z,856.94
2018-02-17T00:43:39.002Z,856.95
2018-02-17T00:44:38.869Z,856.97
2018-02-17T00:45:38.739Z,856.96
2018-02-17T00:46:38.612Z,856.98
2018-02-17T00:47:38.482Z,856.91
2018-02-17T00:48:38.352Z,856.95
2018-02-17T00:49:38.227Z,856.89
2018-02-17T00:50:38.092Z,856.85
2018-02-17T00:51:37.965Z,856.83
2018-02-17T00:52:37.839Z,856.84
2018-02-17T00:53:37.703Z,856.78
2018-02-17T00:54:37.574Z,856.78
2018-02-17T00:55:37.444Z,856.78
2018-02-17T00:56:37.316Z,856.76
2018-02-17T00:57:37.185Z,856.76
2018-02-17T00:58:37.056Z,856.76
2018-02-17T00:59:36.931Z,856.78
2018-02-17T01:00:36.798Z,856.77
2018-02-17T01:01:36.667Z,856.76
2018-02-17T01:02:36.534Z,856.78
2018-02-17T01:03:36.404Z,856.82
2018-02-17T01:04:36.275Z,856.81
2018-02-17T01:05:36.145Z,856.83
2018-02-17T01:06:36.014Z,856.83
2018-02-17T01:07:35.882Z,856.81
2018-02-17T01:08:35.753Z,856.84
2018-02-17T01:09:35.624Z,856.86
2018-02-17T01:10:35.493Z,856.84
2018-02-17T01:11:35.363Z,856.83
2018-02-17T01:12:35.234Z,856.84
2018-02-17T01:13:35.101Z,856.79
2018-02-17T01:14:34.972Z,856.82
2018-02-17T01:15:34.840Z,856.81
2018-02-17T01:16:34.717Z,856.78
2018-02-17T01:17:34.581Z,856.73
2018-02-17T01:18:34.451Z,856.68
2018-02-17T01:19:34.323Z,856.67
2018-02-17T01:20:34.192Z,856.66
2018-02-17T01:21:34.061Z,856.63
2018-02-17T01:22:33.933Z,856.60
2018-02-17T01:23:33.800Z,856.57
2018-02-17T01:24:33.667Z,856.60
2018-02-17T01:25:33.537Z,856.57
2018-02-17T01:26:33.409Z,856.51
2018-02-17T01:27:33.279Z,856.48
2018-02-17T01:28:33.149Z,856.50
2018-02-17T01:29:33.015Z,856.45
2018-02-17T01:30:32.888Z,856.45
2018-02-17T01:31:32.756Z,856.47
2018-02-17T01:32:32.626Z,856.40
2018-02-17T01:33:32.497Z,856.41
2018-02-17T01:34:32.366Z,856.39
2018-02-17T01:35:32.234Z,856.38
2018-02-17T01:36:32.108Z,856.35
2018-02-17T01:37:31.971Z,856.34
2018-02-17T01:38:31.840Z,856.33
2018-02-17T01:39:31.710Z,856.31
2018-02-17T01:40:31.579Z,856.30
2018-02-17T01:41:31.447Z,856.30
2018-02-17T01:42:31.318Z,856.26
2018-02-17T01:43:31.186Z,856.29
2018-02-17T01:44:31.058Z,856.28
2018-02-17T01:45:30.927Z,856.25
2018-02-17T01:46:30.794Z,856.24
2018-02-17T01:47:30.665Z,856.21
2018-02-17T01:48:30.534Z,856.20
2018-02-17T01:49:30.401Z,856.12
2018-02-17T01:50:30.273Z,856.14
2018-02-17T01:51:30.143Z,856.14
2018-02-17T01:52:30.009Z,856.09
2018-02-17T01:53:29.881Z,856.03
2018-02-17T01:54:29.751Z,856.03
2018-02-17T01:55:29.616Z,856.00
2018-02-17T01:56:29.486Z,855.99
2018-02-17T01:57:29.354Z,855.96
2018-02-17T01:58:29.225Z,855.94
2018-02-17T01:59:29.095Z,855.96
2018-02-17T02:00:28.963Z,855.99
2018-02-17T02:01:28.835Z,855.97
2018-02-17T02:02:28.705Z,855.97
2018-02-17T02:03:28.571Z,855.96
2018-02-17T02:04:28.439Z,855.90
2018-02-17T02:05:28.308Z,855.94
2018-02-17T02:06:28.177Z,855.95
2018-02-17T02:07:28.044Z,855.88
2018-02-17T02:08:27.913Z,855.88
2018-02-17T02:09:27.783Z,855.88
2018-02-17T02:10:27.652Z,855.84
2018-02-17T02:11:27.529Z,855.86
2018-02-17T02:12:27.392Z,855.83
2018-02-17T02:13:27.258Z,855.86
2018-02-17T02:14:27.130Z,855.86
2018-02-17T02:15:26.998Z,855.81
2018-02-17T02:16:26.867Z,855.81
2018-02-17T02:17:26.734Z,855.81
2018-02-17T02:18:26.604Z,855.85
2018-02-17T02:19:26.472Z,855.86
2018-02-17T02:20:26.342Z,855.84
2018-02-17T02:21:26.212Z,855.83
2018-02-17T02:22:26.081Z,855.84
2018-02-17T02:23:25.950Z,855.83
2018-02-17T02:24:25.819Z,855.82
2018-02-17T02:25:25.692Z,855.85
2018-02-17T02:26:25.556Z,855.84
2018-02-17T02:27:25.428Z,855.83
2018-02-17T02:28:25.292Z,855.81
2018-02-17T02:29:25.163Z,855.81
2018-02-17T02:30:25.034Z,855.80
2018-02-17T02:31:24.902Z,855.76
2018-02-17T02:32:24.773Z,855.76
2018-02-17T02:33:24.640Z,855.73
2018-02-17T02:34:24.509Z,855.72
2018-02-17T02:35:24.377Z,855.66
2018-02-17T02:36:24.248Z,855.68
2018-02-17T02:37:24.114Z,855.64
2018-02-17T02:38:23.985Z,855.63
2018-02-17T02:39:23.857Z,855.64
2018-02-17T02:40:23.723Z,855.58
2018-02-17T02:41:23.591Z,855.61
2018-02-17T02:42:23.464Z,855.55
2018-02-17T02:43:23.328Z,855.49
2018-02-17T02:44:23.200Z,855.42
2018-02-17T02:45:23.067Z,855.40
2018-02-17T02:46:22.934Z,855.38
2018-02-17T02:47:22.805Z,855.35
2018-02-17T02:48:22.674Z,855.33
2018-02-17T02:49:22.548Z,855.34
2018-02-17T02:50:22.410Z,855.32
2018-02-17T02:51:22.281Z,855.28
2018-02-17T02:52:22.147Z,855.31
2018-02-17T02:53:22.017Z,855.30
2018-02-17T02:54:21.886Z,855.29
2018-02-17T02:55:21.754Z,855.30
2018-02-17T02:56:21.623Z,855.30
2018-02-17T02:57:21.494Z,855.32
2018-02-17T02:58:21.365Z,855.29
2018-02-17T02:59:21.230Z,855.30
2018-02-17T03:00:21.097Z,855.29
2018-02-17T03:01:20.967Z,855.24
2018-02-17T03:02:20.839Z,855.27
2018-02-17T03:03:20.707Z,855.26
2018-02-17T03:04:20.578Z,855.25
2018-02-17T03:05:20.444Z,855.26
2018-02-17T03:06:20.315Z,855.25
2018-02-17T03:07:20.182Z,855.21
2018-02-17T03:08:20.051Z,855.21
2018-02-17T03:09:19.918Z,855.20
2018-02-17T03:10:19.787Z,855.18
2018-02-17T03:11:19.658Z,855.14
2018-02-17T03:12:19.525Z,855.14
2018-02-17T03:13:19.398Z,855.15
2018-02-17T03:14:19.264Z,855.18
2018-02-17T03:15:19.151Z,855.11
2018-02-17T03:16:19.006Z,855.05
2018-02-17T03:17:18.870Z,855.02
2018-02-17T03:18:18.739Z,855.00
2018-02-17T03:19:18.612Z,854.89
2018-02-17T03:20:18.481Z,854.89
2018-02-17T03:21:18.351Z,854.88
2018-02-17T03:22:18.214Z,854.85
2018-02-17T03:23:18.085Z,854.82
2018-02-17T03:24:17.954Z,854.78
2018-02-17T03:25:17.822Z,854.73
2018-02-17T03:26:17.690Z,854.72
2018-02-17T03:27:17.562Z,854.72
2018-02-17T03:28:17.428Z,854.70
2018-02-17T03:29:17.303Z,854.69
2018-02-17T03:30:17.171Z,854.67
2018-02-17T03:31:17.039Z,854.62
2018-02-17T03:32:16.909Z,854.64
2018-02-17T03:33:16.776Z,854.57
2018-02-17T03:34:16.642Z,854.60
2018-02-17T03:35:16.514Z,854.58
2018-02-17T03:36:16.385Z,854.59
2018-02-17T03:37:16.249Z,854.57
2018-02-17T03:38:16.120Z,854.56
2018-02-17T03:39:15.988Z,854.57
2018-02-17T03:40:15.861Z,854.52
2018-02-17T03:41:15.727Z,854.51
2018-02-17T03:42:15.597Z,854.50
2018-02-17T03:43:15.475Z,854.46
2018-02-17T03:44:15.335Z,854.43
2018-02-17T03:45:15.202Z,854.40
2018-02-17T03:46:15.074Z,854.36
2018-02-17T03:47:14.939Z,854.37
2018-02-17T03:48:14.808Z,854.39
2018-02-17T03:49:14.677Z,854.42
2018-02-17T03:50:14.547Z,854.44
2018-02-17T03:51:14.413Z,854.43
2018-02-17T03:52:14.284Z,854.39
2018-02-17T03:53:14.153Z,854.33
2018-02-17T03:54:14.029Z,854.31
2018-02-17T03:55:13.889Z,854.26
2018-02-17T03:56:13.764Z,854.26
2018-02-17T03:57:13.628Z,854.21
2018-02-17T03:58:13.497Z,854.24
2018-02-17T03:59:13.367Z,854.19
2018-02-17T04:00:13.235Z,854.24
2018-02-17T04:01:13.103Z,854.19
2018-02-17T04:02:12.973Z,854.18
2018-02-17T04:03:12.842Z,854.12
2018-02-17T04:04:12.716Z,854.06
2018-02-17T04:05:12.578Z,854.01
2018-02-17T04:06:12.451Z,854.04
2018-02-17T04:07:12.316Z,853.99
2018-02-17T04:08:12.188Z,853.99
2018-02-17T04:09:12.059Z,853.96
2018-02-17T04:10:11.923Z,853.91
2018-02-17T04:11:11.792Z,853.92
2018-02-17T04:12:11.664Z,853.92
2018-02-17T04:13:11.530Z,853.92
2018-02-17T04:14:11.400Z,853.91
2018-02-17T04:15:11.267Z,853.87
2018-02-17T04:16:11.135Z,853.87
2018-02-17T04:17:11.007Z,853.88
2018-02-17T04:18:10.872Z,853.93
2018-02-17T04:19:10.743Z,853.95
2018-02-17T04:20:10.618Z,853.92
2018-02-17T04:21:10.481Z,853.90
2018-02-17T04:22:10.350Z,853.88
2018-02-17T04:23:10.217Z,853.84
2018-02-17T04:24:10.090Z,853.86
2018-02-17T04:25:09.956Z,853.86
2018-02-17T04:26:09.826Z,853.89
2018-02-17T04:27:09.694Z,853.84
2018-02-17T04:28:09.566Z,853.85
2018-02-17T04:29:09.433Z,853.82
2018-02-17T04:30:09.300Z,853.85
2018-02-17T04:31:09.172Z,853.86
2018-02-17T04:32:09.045Z,853.85
2018-02-17T04:33:08.909Z,853.82
2018-02-17T04:34:08.779Z,853.85
2018-02-17T04:35:08.646Z,853.87
2018-02-17T04:36:08.516Z,853.86
2018-02-17T04:37:08.384Z,853.85
2018-02-17T04:38:08.256Z,853.78
2018-02-17T04:39:08.124Z,853.77
2018-02-17T04:40:07.993Z,853.75
2018-02-17T04:41:07.867Z,853.78
2018-02-17T04:42:07.737Z,853.77
2018-02-17T04:43:07.600Z,853.75
2018-02-17T04:44:07.470Z,853.76
2018-02-17T04:45:07.342Z,853.75
2018-02-17T04:46:07.208Z,853.75
2018-02-17T04:47:07.079Z,853.77
2018-02-17T04:48:06.952Z,853.79
2018-02-17T04:49:06.817Z,853.77
2018-02-17T04:50:06.687Z,853.76
2018-02-17T04:51:06.556Z,853.78
2018-02-17T04:52:06.424Z,853.82
2018-02-17T04:53:06.294Z,853.84
2018-02-17T04:54:06.161Z,853.84
2018-02-17T04:55:06.030Z,853.85
2018-02-17T04:56:05.900Z,853.87
2018-02-17T04:57:05.769Z,853.85
2018-02-17T04:58:05.639Z,853.82
2018-02-17T04:59:05.506Z,853.81
2018-02-17T05:00:05.376Z,853.81
2018-02-17T05:01:05.244Z,853.80
2018-02-17T05:02:05.116Z,853.77
2018-02-17T05:03:04.985Z,853.78
2018-02-17T05:04:04.854Z,853.79
2018-02-17T05:05:04.721Z,853.80
2018-02-17T05:06:04.591Z,853.81
2018-02-17T05:07:04.462Z,853.77
2018-02-17T05:08:04.329Z,853.73
2018-02-17T05:09:04.200Z,853.71
2018-02-17T05:10:04.068Z,853.74
2018-02-17T05:11:03.938Z,853.72
2018-02-17T05:12:03.809Z,853.66
2018-02-17T05:13:03.676Z,853.64
2018-02-17T05:14:03.545Z,853.66
2018-02-17T05:15:03.412Z,853.65
2018-02-17T05:16:03.284Z,853.64
2018-02-17T05:17:03.189Z,853.64
2018-02-17T05:18:03.019Z,853.63
2018-02-17T05:19:02.892Z,853.56
2018-02-17T05:20:02.761Z,853.59
2018-02-17T05:21:02.638Z,853.52
2018-02-17T05:22:02.499Z,853.56
2018-02-17T05:23:02.373Z,853.56
2018-02-17T05:24:02.234Z,853.54
2018-02-17T05:25:02.109Z,853.56
2018-02-17T05:26:01.973Z,853.58
2018-02-17T05:27:01.841Z,853.56
2018-02-17T05:28:01.710Z,853.63
2018-02-17T05:29:01.579Z,853.57
2018-02-17T05:30:01.447Z,853.61
2018-02-17T05:31:01.317Z,853.55
2018-02-17T05:32:01.185Z,853.55
2018-02-17T05:33:01.056Z,853.51
2018-02-17T05:34:00.924Z,853.51
2018-02-17T05:35:00.794Z,853.51
2018-02-17T05:36:00.662Z,853.49
2018-02-17T05:37:00.534Z,853.45
2018-02-17T05:38:00.399Z,853.44
2018-02-17T05:39:00.268Z,853.43
2018-02-17T05:40:00.137Z,853.43
2018-02-17T05:41:00.025Z,853.40
2018-02-17T05:41:59.874Z,853.38
2018-02-17T05:42:59.742Z,853.39
2018-02-17T05:43:59.611Z,853.42
2018-02-17T05:44:59.482Z,853.35
2018-02-17T05:45:59.350Z,853.33
2018-02-17T05:46:59.215Z,853.40
2018-02-17T05:47:59.086Z,853.40
2018-02-17T05:48:58.961Z,853.37
2018-02-17T05:49:58.825Z,853.39
2018-02-17T05:50:58.693Z,853.37
2018-02-17T05:51:58.564Z,853.35
2018-02-17T05:52:58.429Z,853.33
2018-02-17T05:53:58.300Z,853.35
2018-02-17T05:54:58.167Z,853.34
2018-02-17T05:55:58.039Z,853.37
2018-02-17T05:56:57.905Z,853.38
2018-02-17T05:57:57.776Z,853.40
2018-02-17T05:58:57.644Z,853.36
2018-02-17T05:59:57.514Z,853.30
2018-02-17T06:00:57.379Z,853.31
2018-02-17T06:01:57.249Z,853.29
2018-02-17T06:02:57.119Z,853.30
2018-02-17T06:03:56.992Z,853.31
2018-02-17T06:04:56.858Z,853.37
2018-02-17T06:05:56.727Z,853.37
2018-02-17T06:06:56.598Z,853.29
2018-02-17T06:07:56.466Z,853.32
2018-02-17T06:08:56.335Z,853.31
2018-02-17T06:09:56.202Z,853.34
2018-02-17T06:10:56.145Z,853.40
2018-02-17T06:11:55.944Z,853.42
2018-02-17T06:12:55.809Z,853.49
2018-02-17T06:13:55.681Z,853.49
2018-02-17T06:14:55.548Z,853.51
2018-02-17T06:15:55.417Z,853.53
2018-02-17T06:16:55.287Z,853.55
2018-02-17T06:17:55.158Z,853.59
2018-02-17T06:18:55.028Z,853.62
2018-02-17T06:19:54.899Z,853.69
2018-02-17T06:20:54.765Z,853.69
2018-02-17T06:21:54.632Z,853.66
2018-02-17T06:22:54.502Z,853.70
2018-02-17T06:23:54.370Z,853.61
2018-02-17T06:24:54.239Z,853.66
2018-02-17T06:25:54.110Z,853.65
2018-02-17T06:26:53.980Z,853.69
2018-02-17T06:27:53.847Z,853.64
2018-02-17T06:28:53.715Z,853.58
2018-02-17T06:29:53.588Z,853.57
2018-02-17T06:30:53.455Z,853.56
2018-02-17T06:31:53.382Z,853.52
2018-02-17T06:32:53.194Z,853.50
2018-02-17T06:33:53.062Z,853.45
2018-02-17T06:34:52.932Z,853.42
2018-02-17T06:35:52.802Z,853.39
2018-02-17T06:36:52.673Z,853.37
2018-02-17T06:37:52.538Z,853.37
2018-02-17T06:38:52.407Z,853.31
2018-02-17T06:39:52.276Z,853.33
2018-02-17T06:40:52.146Z,853.35
2018-02-17T06:41:52.017Z,853.34
2018-02-17T06:42:51.883Z,853.35
2018-02-17T06:43:51.754Z,853.28
2018-02-17T06:44:51.624Z,853.29
2018-02-17T06:45:51.492Z,853.31
2018-02-17T06:46:51.363Z,853.29
2018-02-17T06:47:51.231Z,853.28
2018-02-17T06:48:51.099Z,853.25
2018-02-17T06:49:50.969Z,853.22
2018-02-17T06:50:50.836Z,853.24
2018-02-17T06:51:50.708Z,853.21
2018-02-17T06:52:50.579Z,853.24
2018-02-17T06:53:50.445Z,853.20
2018-02-17T06:54:50.312Z,853.18
2018-02-17T06:55:50.183Z,853.19
2018-02-17T06:56:50.050Z,853.18
2018-02-17T06:57:49.920Z,853.19
2018-02-17T06:58:49.790Z,853.20
2018-02-17T06:59:49.656Z,853.21
2018-02-17T07:00:49.529Z,853.21
2018-02-17T07:01:49.397Z,853.22
2018-02-17T07:02:49.271Z,853.25
2018-02-17T07:03:49.137Z,853.31
2018-02-17T07:04:49.003Z,853.32
2018-02-17T07:05:48.876Z,853.36
2018-02-17T07:06:48.744Z,853.33
2018-02-17T07:07:48.615Z,853.33
2018-02-17T07:08:48.486Z,853.33
2018-02-17T07:09:48.351Z,853.33
2018-02-17T07:10:48.220Z,853.36
2018-02-17T07:11:48.092Z,853.39
2018-02-17T07:12:47.960Z,853.32
2018-02-17T07:13:47.832Z,853.33
2018-02-17T07:14:47.700Z,853.33
2018-02-17T07:15:47.570Z,853.33
2018-02-17T07:16:47.449Z,853.32
2018-02-17T07:17:47.307Z,853.34
2018-02-17T07:18:47.183Z,853.29
2018-02-17T07:19:47.051Z,853.34
2018-02-17T07:20:46.921Z,853.31
2018-02-17T07:21:46.791Z,853.28
2018-02-17T07:22:46.662Z,853.29
2018-02-17T07:23:46.529Z,853.30
2018-02-17T07:24:46.399Z,853.29
2018-02-17T07:25:46.272Z,853.25
2018-02-17T07:26:46.139Z,853.25
2018-02-17T07:27:46.012Z,853.22
2018-02-17T07:28:45.881Z,853.19
2018-02-17T07:29:45.748Z,853.20
2018-02-17T07:30:45.622Z,853.24
2018-02-17T07:31:45.490Z,853.20
2018-02-17T07:32:45.361Z,853.20
2018-02-17T07:33:45.232Z,853.18
2018-02-17T07:34:45.101Z,853.20
2018-02-17T07:35:44.973Z,853.18
2018-02-17T07:36:44.840Z,853.17
2018-02-17T07:37:44.713Z,853.10
2018-02-17T07:38:44.583Z,853.07
2018-02-17T07:39:44.455Z,853.03
2018-02-17T07:40:44.323Z,853.03
2018-02-17T07:41:44.191Z,853.03
2018-02-17T07:42:44.066Z,853.03
2018-02-17T07:43:43.934Z,852.99
2018-02-17T07:44:43.804Z,852.99
2018-02-17T07:45:43.682Z,852.95
2018-02-17T07:46:43.545Z,852.94
2018-02-17T07:47:43.417Z,852.92
2018-02-17T07:48:43.286Z,852.96
2018-02-17T07:49:43.159Z,852.90
2018-02-17T07:50:43.030Z,852.87
2018-02-17T07:51:42.899Z,852.87
2018-02-17T07:52:42.769Z,852.87
2018-02-17T07:53:42.642Z,852.84
2018-02-17T07:54:42.514Z,852.83
2018-02-17T07:55:42.383Z,852.81
2018-02-17T07:56:42.256Z,852.81
2018-02-17T07:57:42.127Z,852.83
2018-02-17T07:58:41.997Z,852.84
2018-02-17T07:59:41.867Z,852.80
2018-02-17T08:00:41.737Z,852.79
2018-02-17T08:01:41.616Z,852.80
2018-02-17T08:02:41.485Z,852.75
2018-02-17T08:03:41.354Z,852.73
2018-02-17T08:04:41.224Z,852.71
2018-02-17T08:05:41.096Z,852.74
2018-02-17T08:06:40.971Z,852.75
2018-02-17T08:07:40.843Z,852.75
2018-02-17T08:08:40.709Z,852.78
2018-02-17T08:09:40.642Z,852.77
2018-02-17T08:10:40.452Z,852.77
2018-02-17T08:11:40.327Z,852.73
2018-02-17T08:12:40.195Z,852.73
2018-02-17T08:13:40.062Z,852.75
2018-02-17T08:14:39.937Z,852.75
2018-02-17T08:15:39.806Z,852.76
2018-02-17T08:16:39.679Z,852.74
2018-02-17T08:17:39.550Z,852.77
2018-02-17T08:18:39.422Z,852.70
2018-02-17T08:19:39.294Z,852.69
2018-02-17T08:20:39.165Z,852.68
2018-02-17T08:21:39.038Z,852.70
2018-02-17T08:22:38.910Z,852.70
2018-02-17T08:23:38.781Z,852.69
2018-02-17T08:24:38.652Z,852.74
2018-02-17T08:25:38.525Z,852.72
2018-02-17T08:26:38.405Z,852.70
2018-02-17T08:27:38.271Z,852.70
2018-02-17T08:28:38.144Z,852.67
2018-02-17T08:29:38.016Z,852.66
2018-02-17T08:30:37.892Z,852.63
2018-02-17T08:31:37.763Z,852.63
2018-02-17T08:32:37.631Z,852.65
2018-02-17T08:33:37.505Z,852.64
2018-02-17T08:34:37.378Z,852.65
2018-02-17T08:35:37.252Z,852.63
2018-02-17T08:36:37.124Z,852.59
2018-02-17T08:37:36.999Z,852.59
2018-02-17T08:38:36.870Z,852.59
2018-02-17T08:39:36.742Z,852.55
2018-02-17T08:40:36.616Z,852.52
2018-02-17T08:41:36.490Z,852.52
2018-02-17T08:42:36.367Z,852.49
2018-02-17T08:43:36.236Z,852.51
2018-02-17T08:44:36.110Z,852.52
2018-02-17T08:45:35.983Z,852.49
2018-02-17T08:46:35.859Z,852.53
2018-02-17T08:47:35.734Z,852.55
2018-02-17T08:48:35.603Z,852.55
2018-02-17T08:49:35.480Z,852.60
2018-02-17T08:50:35.352Z,852.53
2018-02-17T08:51:35.229Z,852.53
2018-02-17T08:52:35.105Z,852.47
2018-02-17T08:53:34.978Z,852.45
2018-02-17T08:54:34.854Z,852.42
2018-02-17T08:55:34.726Z,852.42
2018-02-17T08:56:34.600Z,852.45
2018-02-17T08:57:34.476Z,852.40
2018-02-17T08:58:34.349Z,852.41
2018-02-17T08:59:34.222Z,852.43
2018-02-17T09:00:34.100Z,852.43
2018-02-17T09:01:33.974Z,852.42
2018-02-17T09:02:33.853Z,852.43
2018-02-17T09:03:33.727Z,852.39
2018-02-17T09:04:33.595Z,852.41
2018-02-17T09:05:33.473Z,852.36
2018-02-17T09:06:33.349Z,852.33
2018-02-17T09:07:33.221Z,852.34
2018-02-17T09:08:33.095Z,852.31
2018-02-17T09:09:32.973Z,852.29
2018-02-17T09:10:32.849Z,852.29
2018-02-17T09:11:32.721Z,852.29
2018-02-17T09:12:32.607Z,852.26
2018-02-17T09:13:32.472Z,852.25
2018-02-17T09:14:32.348Z,852.20
2018-02-17T09:15:32.227Z,852.22
2018-02-17T09:16:32.098Z,852.22
2018-02-17T09:17:31.974Z,852.22
2018-02-17T09:18:31.863Z,852.16
2018-02-17T09:19:31.726Z,852.18
2018-02-17T09:20:31.599Z,852.17
2018-02-17T09:21:31.474Z,852.14
2018-02-17T09:22:31.361Z,852.07
2018-02-17T09:23:31.225Z,852.04
2018-02-17T09:24:31.102Z,852.00
2018-02-17T09:25:30.975Z,852.02
2018-02-17T09:26:30.850Z,851.99
2018-02-17T09:27:30.777Z,852.02
2018-02-17T09:28:30.598Z,851.97
2018-02-17T09:29:30.478Z,851.98
2018-02-17T09:30:30.353Z,851.93
2018-02-17T09:31:30.225Z,851.89
2018-02-17T09:32:30.098Z,851.89
2018-02-17T09:33:29.973Z,851.88
2018-02-17T09:34:29.851Z,851.87
2018-02-17T09:35:29.726Z,851.84
2018-02-17T09:36:29.601Z,851.82
2018-02-17T09:37:29.473Z,851.82
2018-02-17T09:38:29.351Z,851.85
2018-02-17T09:39:29.224Z,851.81
2018-02-17T09:40:29.099Z,851.76
2018-02-17T09:41:28.974Z,851.75
2018-02-17T09:42:28.850Z,851.69
2018-02-17T09:43:28.726Z,851.64
2018-02-17T09:44:28.598Z,851.68
2018-02-17T09:45:28.476Z,851.67
2018-02-17T09:46:28.351Z,851.68
2018-02-17T09:47:28.233Z,851.68
2018-02-17T09:48:28.100Z,851.65
2018-02-17T09:49:27.975Z,851.60
2018-02-17T09:50:27.850Z,851.56
2018-02-17T09:51:27.728Z,851.53
2018-02-17T09:52:27.599Z,851.52
2018-02-17T09:53:27.480Z,851.46
2018-02-17T09:54:27.353Z,851.46
2018-02-17T09:55:27.232Z,851.41
2018-02-17T09:56:27.105Z,851.37
2018-02-17T09:57:26.979Z,851.34
2018-02-17T09:58:26.859Z,851.27
2018-02-17T09:59:26.734Z,851.28
2018-02-17T10:00:26.609Z,851.23
2018-02-17T10:01:26.486Z,851.26
2018-02-17T10:02:26.376Z,851.21
2018-02-17T10:03:26.238Z,851.24
2018-02-17T10:04:26.116Z,851.22
2018-02-17T10:05:25.992Z,851.20
2018-02-17T10:06:25.868Z,851.12
2018-02-17T10:07:25.746Z,851.13
2018-02-17T10:08:25.626Z,851.12
2018-02-17T10:09:25.498Z,851.17
2018-02-17T10:10:25.377Z,851.19
2018-02-17T10:11:25.292Z,851.19
2018-02-17T10:12:25.134Z,851.16
2018-02-17T10:13:25.010Z,851.19
2018-02-17T10:14:24.885Z,851.17
2018-02-17T10:15:24.765Z,851.19
2018-02-17T10:16:24.639Z,851.25
2018-02-17T10:17:24.535Z,851.27
2018-02-17T10:18:24.398Z,851.31
2018-02-17T10:19:24.277Z,851.38
2018-02-17T10:20:24.151Z,851.40
2018-02-17T10:21:24.032Z,851.41
2018-02-17T10:22:23.908Z,851.44
2018-02-17T10:23:23.783Z,851.44
2018-02-17T10:24:23.715Z,851.47
2018-02-17T10:25:23.539Z,851.46
2018-02-17T10:26:23.414Z,851.48
2018-02-17T10:27:23.294Z,851.46
2018-02-17T10:28:23.169Z,851.47
2018-02-17T10:29:23.045Z,851.46
2018-02-17T10:30:22.919Z,851.51
2018-02-17T10:31:22.799Z,851.54
2018-02-17T10:32:22.676Z,851.56
2018-02-17T10:33:22.551Z,851.53
2018-02-17T10:34:22.428Z,851.49
2018-02-17T10:35:22.302Z,851.48
2018-02-17T10:36:22.190Z,851.48
2018-02-17T10:37:22.055Z,851.50
2018-02-17T10:38:21.928Z,851.49
2018-02-17T10:39:21.803Z,851.47
2018-02-17T10:40:21.681Z,851.48
2018-02-17T10:41:21.557Z,851.42
2018-02-17T10:42:21.433Z,851.41
2018-02-17T10:43:21.328Z,851.41
2018-02-17T10:44:21.183Z,851.40
2018-02-17T10:45:21.057Z,851.39
2018-02-17T10:46:20.934Z,851.39
2018-02-17T10:47:20.810Z,851.38
2018-02-17T10:48:20.686Z,851.35
2018-02-17T10:49:21.221Z,851.36
2018-02-17T10:50:20.438Z,851.33
2018-02-17T10:51:20.311Z,851.36
2018-02-17T10:52:20.189Z,851.32
2018-02-17T10:53:20.069Z,851.32
2018-02-17T10:54:19.948Z,851.33
2018-02-17T10:55:19.817Z,851.29
2018-02-17T10:56:19.690Z,851.31
2018-02-17T10:57:19.573Z,851.33
2018-02-17T10:58:19.444Z,851.31
2018-02-17T10:59:19.352Z,851.32
2018-02-17T11:00:19.196Z,851.32
2018-02-17T11:01:19.077Z,851.33
2018-02-17T11:02:18.950Z,851.35
2018-02-17T11:03:18.826Z,851.32
2018-02-17T11:04:18.699Z,851.30
2018-02-17T11:05:18.579Z,851.33
2018-02-17T11:06:18.471Z,851.26
2018-02-17T11:07:18.332Z,851.26
2018-02-17T11:08:18.207Z,851.23
2018-02-17T11:09:18.085Z,851.26
2018-02-17T11:10:17.962Z,851.23
2018-02-17T11:11:17.838Z,851.22
2018-02-17T11:12:17.722Z,851.20
2018-02-17T11:13:17.590Z,851.16
2018-02-17T11:14:17.526Z,851.14
2018-02-17T11:15:17.346Z,851.17
2018-02-17T11:16:17.220Z,851.12
2018-02-17T11:17:17.097Z,851.08
2018-02-17T11:18:16.974Z,851.02
2018-02-17T11:19:16.850Z,851.02
2018-02-17T11:20:16.726Z,851.00
2018-02-17T11:21:16.602Z,851.01
2018-02-17T11:22:16.478Z,851.01
2018-02-17T11:23:16.357Z,851.01
2018-02-17T11:24:16.233Z,850.95
2018-02-17T11:25:16.109Z,850.99
2018-02-17T11:26:16.015Z,850.97
2018-02-17T11:27:15.864Z,850.94
2018-02-17T11:28:15.736Z,850.91
2018-02-17T11:29:15.617Z,850.92
2018-02-17T11:30:15.491Z,850.94
2018-02-17T11:31:15.368Z,850.92
2018-02-17T11:32:15.244Z,850.90
2018-02-17T11:33:15.122Z,850.93
2018-02-17T11:34:14.994Z,850.92
2018-02-17T11:35:14.872Z,850.91
2018-02-17T11:36:14.749Z,850.90
2018-02-17T11:37:14.622Z,850.89
2018-02-17T11:38:14.499Z,850.85
2018-02-17T11:39:14.377Z,850.82
2018-02-17T11:40:14.294Z,850.82
2018-02-17T11:41:14.130Z,850.79
2018-02-17T11:42:14.005Z,850.82
2018-02-17T11:43:13.878Z,850.80
2018-02-17T11:44:13.758Z,850.76
2018-02-17T11:45:13.630Z,850.68
2018-02-17T11:46:13.513Z,850.69
2018-02-17T11:47:13.382Z,850.65
2018-02-17T11:48:13.260Z,850.58
2018-02-17T11:49:13.137Z,850.63
2018-02-17T11:50:13.016Z,850.61
2018-02-17T11:51:12.888Z,850.65
2018-02-17T11:52:12.761Z,850.65
2018-02-17T11:53:12.637Z,850.62
2018-02-17T11:54:12.513Z,850.59
2018-02-17T11:55:12.393Z,850.53
2018-02-17T11:56:12.267Z,850.49
2018-02-17T11:57:12.142Z,850.46
2018-02-17T11:58:12.020Z,850.50
2018-02-17T11:59:11.895Z,850.46
2018-02-17T12:00:11.771Z,850.47
2018-02-17T12:01:11.645Z,850.43
2018-02-17T12:02:11.529Z,850.44
2018-02-17T12:03:11.397Z,850.42
2018-02-17T12:04:11.322Z,850.39
2018-02-17T12:05:11.148Z,850.36
2018-02-17T12:06:11.025Z,850.35
2018-02-17T12:07:10.899Z,850.42
2018-02-17T12:08:10.776Z,850.39
2018-02-17T12:09:10.651Z,850.39
2018-02-17T12:10:10.527Z,850.25
2018-02-17T12:11:10.410Z,850.32
2018-02-17T12:12:10.279Z,850.36
2018-02-17T12:13:10.153Z,850.36
2018-02-17T12:14:10.030Z,850.31
2018-02-17T12:15:09.909Z,850.30
2018-02-17T12:16:09.781Z,850.33
2018-02-17T12:17:09.657Z,850.39
2018-02-17T12:18:09.529Z,850.38
2018-02-17T12:19:09.407Z,850.37
2018-02-17T12:20:09.282Z,850.41
2018-02-17T12:21:09.157Z,850.40
2018-02-17T12:22:09.032Z,850.38
2018-02-17T12:23:08.907Z,850.37
2018-02-17T12:24:08.782Z,850.34
2018-02-17T12:25:08.659Z,850.30
2018-02-17T12:26:08.539Z,850.31
2018-02-17T12:27:08.407Z,850.32